Uliastai, Mongolia
Current Conditions -  °F | °C
As of 4:30 PM on Monday 20 Oct 2014 (Local Time) from UIII Reporting Station
Clear Clear  
Wind Chill: 23°   Ceiling: Unl
Heat Index: 28°   Visibility: 6mi
Dew Point: 10°   Wind: 4mph
Humidity: 47%   Direction: 300°WNW
Pressure: 30.21"   Gusts: NA
Location:  47.75°N, 96.85°E
Report Text: UIII 200830Z 30002MPS CAVOK M02/M12 Q1023 NOSIG RMK QFE725/096712CLRD60
Loading
Personal Weather Stations






























Interactive Weather Map
Tropical Storm Tracking
New forecast layout! Learn more

10-Day Weather Forecast

Advertisements
Track Severe Weather on mobile